Terminal Aerodrome Forecast
Issued by NWS Quad Cities IA IL

Home | Current Version | Previous Version | Graphics & Text | Print | Product List | Glossary On
Versions: 1 2 3 4 5 6 7 8 9 10 11 12 13 14 15 16 17
992
FTUS43 KDVN 280520
TAFMLI
TAF
KMLI 280520Z 2806/2906 30006KT P6SM BKN200
     FM280900 32008KT P6SM SCT040 BKN060
     FM281100 33010KT P6SM BKN040
     FM281500 34011G17KT P6SM OVC035
     FM281700 34013G19KT P6SM OVC045=

USA.gov is the U.S. government's official web portal to all federal, state and local government web resources and services.